ASN logo
ASN Wikibase Occurrence # 195090
Last updated: 20 October 2017
This information is added by users of ASN. Neither ASN nor the Flight Safety Foundation are responsible for the completeness or correctness of this information. If you feel this information is incomplete or incorrect, you can submit corrected information.

Date:28-APR-2017
Time:17:29 UTC
Type:Silhouette image of generic A320 model; specific model in this crash may look slightly different
Airbus A320-232
Owner/operator:Nesma Airlines
Registration: SU-NMC
C/n / msn: 2676
Fatalities:Fatalities: 0 / Occupants:
Other fatalities:0
Airplane damage: Minor
Category:Serious incident
Location:Abha Airport (AHB/OEAB) -   Saudi Arabia
Phase: Landing
Nature:International Scheduled Passenger
Departure airport:Cairo International Airport (CAI/HECA)
Destination airport:Abha Airport (AHB/OEAB)
Investigating agency: GACA
Narrative:
Nesma Airlines flight NE154 suffered a runway excursion after landing at Abha Airport in Saudi Arabia.
The aircraft, an Airbus A320-232, departed Cairo, Egypt at 15:02 UTC on a scheduled passenger service to Abha.
A thunderstorm was passing the airport with Cumulonimbus clouds at 2500 feet as the aircraft was cleared for the approach to runway 31 at Abha Airport.
After landing the aircraft failed to stop on the runway and rolled past the end. The aircraft stopped at 186 m beyond the threshold of runway 31. No injuries were reported but both engines blades sustained damage.

Runway 31 has a Landing Distance Available (LDA) of 3350m. While runway 13 is equipped for ILS approaches, runway 31 offers VOR/DME approaches.

OEAB 281800Z 06009KT 9999 SCT020 FEW025CB SCT070 14/11 Q1027 NOSIG
OEAB 281700Z 03010KT 9000 TSRA BKN020 FEW025CB BKN070 15/13 Q1028 NOSIG

Sources:

https://www.flightradar24.com/data/flights/ne154#d3707e9
GACA
https://www.bea.aero/en/investigation-reports/notified-events/detail/event/serious-incident-to-the-airbus-a320-registered-su-nmc-operated-by-nesma-airlines-occured-on-042820/


Images:


Revision history:

Date/timeContributorUpdates
29-Apr-2017 08:26 harro Added
29-Apr-2017 09:05 harro Updated [Source, Embed code, Narrative, Photo, ]
17-May-2017 13:54 harro Updated [Source, Damage, Narrative]

Corrections or additions? ... Edit this accident description